sensor_id;sensor_type;location;lat;lon;timestamp;temperature;humidity
75719;DHT22;64340;48.534;-3.036;2023-05-07T00:01:56;18.10;76.50
75719;DHT22;64340;48.534;-3.036;2023-05-07T00:04:22;18.00;76.50
75719;DHT22;64340;48.534;-3.036;2023-05-07T00:06:48;18.00;76.50
75719;DHT22;64340;48.534;-3.036;2023-05-07T00:09:14;18.00;76.20
75719;DHT22;64340;48.534;-3.036;2023-05-07T00:11:40;18.00;76.40
75719;DHT22;64340;48.534;-3.036;2023-05-07T00:14:05;18.00;76.20
75719;DHT22;64340;48.534;-3.036;2023-05-07T00:16:31;18.00;76.20
75719;DHT22;64340;48.534;-3.036;2023-05-07T00:18:57;18.00;76.20
75719;DHT22;64340;48.534;-3.036;2023-05-07T00:21:23;18.00;76.20
75719;DHT22;64340;48.534;-3.036;2023-05-07T00:23:52;18.00;76.20
75719;DHT22;64340;48.534;-3.036;2023-05-07T00:26:18;18.00;76.10
75719;DHT22;64340;48.534;-3.036;2023-05-07T00:28:44;18.00;76.10
75719;DHT22;64340;48.534;-3.036;2023-05-07T00:31:10;18.00;76.20
75719;DHT22;64340;48.534;-3.036;2023-05-07T00:33:36;18.00;76.00
75719;DHT22;64340;48.534;-3.036;2023-05-07T00:36:02;18.00;76.20
75719;DHT22;64340;48.534;-3.036;2023-05-07T00:38:28;18.00;76.00
75719;DHT22;64340;48.534;-3.036;2023-05-07T00:40:53;18.00;76.10
75719;DHT22;64340;48.534;-3.036;2023-05-07T00:43:19;17.90;76.10
75719;DHT22;64340;48.534;-3.036;2023-05-07T00:45:46;17.90;76.00
75719;DHT22;64340;48.534;-3.036;2023-05-07T00:48:11;17.90;76.00
75719;DHT22;64340;48.534;-3.036;2023-05-07T00:50:38;17.90;76.00
75719;DHT22;64340;48.534;-3.036;2023-05-07T00:53:04;17.90;75.90
75719;DHT22;64340;48.534;-3.036;2023-05-07T00:55:30;17.90;75.90
75719;DHT22;64340;48.534;-3.036;2023-05-07T00:57:56;17.80;75.80
75719;DHT22;64340;48.534;-3.036;2023-05-07T01:00:22;17.90;75.90
75719;DHT22;64340;48.534;-3.036;2023-05-07T01:02:47;17.80;75.80
75719;DHT22;64340;48.534;-3.036;2023-05-07T01:05:16;17.80;75.90
75719;DHT22;64340;48.534;-3.036;2023-05-07T01:07:43;17.80;75.90
75719;DHT22;64340;48.534;-3.036;2023-05-07T01:10:10;17.90;75.90
75719;DHT22;64340;48.534;-3.036;2023-05-07T01:12:37;17.80;76.00
75719;DHT22;64340;48.534;-3.036;2023-05-07T01:15:06;17.90;76.00
75719;DHT22;64340;48.534;-3.036;2023-05-07T01:17:40;17.90;76.00
75719;DHT22;64340;48.534;-3.036;2023-05-07T01:20:08;17.80;75.80
75719;DHT22;64340;48.534;-3.036;2023-05-07T01:22:35;17.80;75.80
75719;DHT22;64340;48.534;-3.036;2023-05-07T01:25:04;17.80;75.70
75719;DHT22;64340;48.534;-3.036;2023-05-07T01:27:31;17.80;75.70
75719;DHT22;64340;48.534;-3.036;2023-05-07T01:29:59;17.80;75.70
75719;DHT22;64340;48.534;-3.036;2023-05-07T01:32:32;17.80;75.70
75719;DHT22;64340;48.534;-3.036;2023-05-07T01:35:00;17.80;75.80
75719;DHT22;64340;48.534;-3.036;2023-05-07T01:37:26;17.80;75.60
75719;DHT22;64340;48.534;-3.036;2023-05-07T01:39:52;17.80;75.50
75719;DHT22;64340;48.534;-3.036;2023-05-07T01:42:19;17.80;75.60
75719;DHT22;64340;48.534;-3.036;2023-05-07T01:44:45;17.80;75.70
75719;DHT22;64340;48.534;-3.036;2023-05-07T01:47:12;17.80;75.60
75719;DHT22;64340;48.534;-3.036;2023-05-07T01:49:38;17.80;75.50
75719;DHT22;64340;48.534;-3.036;2023-05-07T01:52:04;17.80;75.60
75719;DHT22;64340;48.534;-3.036;2023-05-07T01:54:30;17.80;75.50
75719;DHT22;64340;48.534;-3.036;2023-05-07T01:56:57;17.80;75.50
75719;DHT22;64340;48.534;-3.036;2023-05-07T01:59:23;17.80;75.50
75719;DHT22;64340;48.534;-3.036;2023-05-07T02:01:48;17.80;75.50
75719;DHT22;64340;48.534;-3.036;2023-05-07T02:04:14;17.80;75.50
75719;DHT22;64340;48.534;-3.036;2023-05-07T02:06:40;17.70;75.50
75719;DHT22;64340;48.534;-3.036;2023-05-07T02:09:06;17.70;75.50
75719;DHT22;64340;48.534;-3.036;2023-05-07T02:11:32;17.70;75.50
75719;DHT22;64340;48.534;-3.036;2023-05-07T02:13:57;17.70;75.40
75719;DHT22;64340;48.534;-3.036;2023-05-07T02:16:23;17.70;75.40
75719;DHT22;64340;48.534;-3.036;2023-05-07T02:18:49;17.70;75.50
75719;DHT22;64340;48.534;-3.036;2023-05-07T02:21:15;17.70;75.50
75719;DHT22;64340;48.534;-3.036;2023-05-07T02:23:41;17.70;75.50
75719;DHT22;64340;48.534;-3.036;2023-05-07T02:26:06;17.70;75.40
75719;DHT22;64340;48.534;-3.036;2023-05-07T02:28:32;17.70;75.40
75719;DHT22;64340;48.534;-3.036;2023-05-07T02:31:02;17.70;75.40
75719;DHT22;64340;48.534;-3.036;2023-05-07T02:33:28;17.60;75.30
75719;DHT22;64340;48.534;-3.036;2023-05-07T02:35:54;17.60;75.40
75719;DHT22;64340;48.534;-3.036;2023-05-07T02:38:20;17.60;75.30
75719;DHT22;64340;48.534;-3.036;2023-05-07T02:40:45;17.60;75.30
75719;DHT22;64340;48.534;-3.036;2023-05-07T02:43:11;17.60;75.30
75719;DHT22;64340;48.534;-3.036;2023-05-07T02:45:37;17.60;75.30
75719;DHT22;64340;48.534;-3.036;2023-05-07T02:48:03;17.60;75.30
75719;DHT22;64340;48.534;-3.036;2023-05-07T02:50:30;17.60;75.30
75719;DHT22;64340;48.534;-3.036;2023-05-07T02:52:58;17.60;75.30
75719;DHT22;64340;48.534;-3.036;2023-05-07T02:55:24;17.60;75.20
75719;DHT22;64340;48.534;-3.036;2023-05-07T02:57:50;17.60;75.20
75719;DHT22;64340;48.534;-3.036;2023-05-07T03:00:18;17.60;75.10
75719;DHT22;64340;48.534;-3.036;2023-05-07T03:02:45;17.60;75.10
75719;DHT22;64340;48.534;-3.036;2023-05-07T03:05:10;17.60;75.00
75719;DHT22;64340;48.534;-3.036;2023-05-07T03:07:37;17.60;75.00
75719;DHT22;64340;48.534;-3.036;2023-05-07T03:10:03;17.60;75.10
75719;DHT22;64340;48.534;-3.036;2023-05-07T03:12:30;17.50;75.00
75719;DHT22;64340;48.534;-3.036;2023-05-07T03:14:56;17.60;75.00
75719;DHT22;64340;48.534;-3.036;2023-05-07T03:17:22;17.60;75.00
75719;DHT22;64340;48.534;-3.036;2023-05-07T03:19:48;17.60;75.00
75719;DHT22;64340;48.534;-3.036;2023-05-07T03:22:14;17.50;75.00
75719;DHT22;64340;48.534;-3.036;2023-05-07T03:24:40;17.50;74.90
75719;DHT22;64340;48.534;-3.036;2023-05-07T03:27:06;17.50;74.90
75719;DHT22;64340;48.534;-3.036;2023-05-07T03:29:31;17.50;74.90
75719;DHT22;64340;48.534;-3.036;2023-05-07T03:31:57;17.50;74.90
75719;DHT22;64340;48.534;-3.036;2023-05-07T03:34:23;17.50;75.00
75719;DHT22;64340;48.534;-3.036;2023-05-07T03:36:49;17.50;75.00
75719;DHT22;64340;48.534;-3.036;2023-05-07T03:39:15;17.50;75.00
75719;DHT22;64340;48.534;-3.036;2023-05-07T03:41:41;17.50;75.10
75719;DHT22;64340;48.534;-3.036;2023-05-07T03:44:06;17.50;75.00
75719;DHT22;64340;48.534;-3.036;2023-05-07T03:46:33;17.50;74.90
75719;DHT22;64340;48.534;-3.036;2023-05-07T03:48:59;17.50;74.90
75719;DHT22;64340;48.534;-3.036;2023-05-07T03:51:25;17.50;74.90
75719;DHT22;64340;48.534;-3.036;2023-05-07T03:53:51;17.50;74.90
75719;DHT22;64340;48.534;-3.036;2023-05-07T03:56:19;17.50;74.90
75719;DHT22;64340;48.534;-3.036;2023-05-07T03:58:45;17.50;74.90
75719;DHT22;64340;48.534;-3.036;2023-05-07T04:01:11;17.50;74.90
75719;DHT22;64340;48.534;-3.036;2023-05-07T04:03:37;17.50;74.80
75719;DHT22;64340;48.534;-3.036;2023-05-07T04:06:03;17.50;74.90
75719;DHT22;64340;48.534;-3.036;2023-05-07T04:08:29;17.50;74.80
75719;DHT22;64340;48.534;-3.036;2023-05-07T04:10:55;17.50;74.80
75719;DHT22;64340;48.534;-3.036;2023-05-07T04:13:21;17.50;74.70
75719;DHT22;64340;48.534;-3.036;2023-05-07T04:15:47;17.50;74.70
75719;DHT22;64340;48.534;-3.036;2023-05-07T04:18:15;17.50;74.60
75719;DHT22;64340;48.534;-3.036;2023-05-07T04:20:41;17.50;74.70
75719;DHT22;64340;48.534;-3.036;2023-05-07T04:23:07;17.50;74.60
75719;DHT22;64340;48.534;-3.036;2023-05-07T04:25:33;17.50;74.70
75719;DHT22;64340;48.534;-3.036;2023-05-07T04:27:59;17.50;74.70
75719;DHT22;64340;48.534;-3.036;2023-05-07T04:30:25;17.40;74.60
75719;DHT22;64340;48.534;-3.036;2023-05-07T04:32:52;17.40;74.70
75719;DHT22;64340;48.534;-3.036;2023-05-07T04:35:18;17.40;74.60
75719;DHT22;64340;48.534;-3.036;2023-05-07T04:37:44;17.50;74.50
75719;DHT22;64340;48.534;-3.036;2023-05-07T04:40:10;17.40;74.60
75719;DHT22;64340;48.534;-3.036;2023-05-07T04:42:36;17.40;74.50
75719;DHT22;64340;48.534;-3.036;2023-05-07T04:45:02;17.40;74.60
75719;DHT22;64340;48.534;-3.036;2023-05-07T04:47:28;17.40;74.60
75719;DHT22;64340;48.534;-3.036;2023-05-07T04:49:54;17.40;74.60
75719;DHT22;64340;48.534;-3.036;2023-05-07T04:52:19;17.40;74.60
75719;DHT22;64340;48.534;-3.036;2023-05-07T04:54:45;17.40;74.70
75719;DHT22;64340;48.534;-3.036;2023-05-07T04:57:11;17.40;74.60
75719;DHT22;64340;48.534;-3.036;2023-05-07T04:59:37;17.40;74.60
75719;DHT22;64340;48.534;-3.036;2023-05-07T05:02:03;17.40;74.60
75719;DHT22;64340;48.534;-3.036;2023-05-07T05:04:29;17.40;74.60
75719;DHT22;64340;48.534;-3.036;2023-05-07T05:06:55;17.40;74.50
75719;DHT22;64340;48.534;-3.036;2023-05-07T05:09:21;17.40;74.50
75719;DHT22;64340;48.534;-3.036;2023-05-07T05:11:47;17.40;74.50
75719;DHT22;64340;48.534;-3.036;2023-05-07T05:14:13;17.40;74.40
75719;DHT22;64340;48.534;-3.036;2023-05-07T05:16:39;17.40;74.50
75719;DHT22;64340;48.534;-3.036;2023-05-07T05:19:05;17.40;74.40
75719;DHT22;64340;48.534;-3.036;2023-05-07T05:21:31;17.40;74.40
75719;DHT22;64340;48.534;-3.036;2023-05-07T05:23:58;17.40;74.30
75719;DHT22;64340;48.534;-3.036;2023-05-07T05:26:23;17.40;74.30
75719;DHT22;64340;48.534;-3.036;2023-05-07T05:28:49;17.40;74.30
75719;DHT22;64340;48.534;-3.036;2023-05-07T05:31:16;17.40;74.30
75719;DHT22;64340;48.534;-3.036;2023-05-07T05:33:42;17.40;74.30
75719;DHT22;64340;48.534;-3.036;2023-05-07T05:36:09;17.40;74.20
75719;DHT22;64340;48.534;-3.036;2023-05-07T05:38:36;17.40;74.20
75719;DHT22;64340;48.534;-3.036;2023-05-07T05:41:02;17.40;74.20
75719;DHT22;64340;48.534;-3.036;2023-05-07T05:43:28;17.40;74.20
75719;DHT22;64340;48.534;-3.036;2023-05-07T05:45:55;17.40;74.30
75719;DHT22;64340;48.534;-3.036;2023-05-07T05:48:21;17.40;74.30
75719;DHT22;64340;48.534;-3.036;2023-05-07T05:50:47;17.40;74.30
75719;DHT22;64340;48.534;-3.036;2023-05-07T05:53:12;17.40;74.20
75719;DHT22;64340;48.534;-3.036;2023-05-07T05:55:38;17.30;74.20
75719;DHT22;64340;48.534;-3.036;2023-05-07T05:58:04;17.30;74.20
75719;DHT22;64340;48.534;-3.036;2023-05-07T06:00:30;17.30;74.30
75719;DHT22;64340;48.534;-3.036;2023-05-07T06:02:56;17.30;74.20
75719;DHT22;64340;48.534;-3.036;2023-05-07T06:05:22;17.40;74.20
75719;DHT22;64340;48.534;-3.036;2023-05-07T06:07:47;17.30;74.20
75719;DHT22;64340;48.534;-3.036;2023-05-07T06:10:13;17.30;74.30
75719;DHT22;64340;48.534;-3.036;2023-05-07T06:12:39;17.30;74.30
75719;DHT22;64340;48.534;-3.036;2023-05-07T06:15:06;17.30;74.30
75719;DHT22;64340;48.534;-3.036;2023-05-07T06:17:31;17.30;74.30
75719;DHT22;64340;48.534;-3.036;2023-05-07T06:19:57;17.30;74.30
75719;DHT22;64340;48.534;-3.036;2023-05-07T06:22:23;17.30;74.20
75719;DHT22;64340;48.534;-3.036;2023-05-07T06:24:49;17.30;74.20
75719;DHT22;64340;48.534;-3.036;2023-05-07T06:27:15;17.30;74.20
75719;DHT22;64340;48.534;-3.036;2023-05-07T06:29:40;17.30;74.20
75719;DHT22;64340;48.534;-3.036;2023-05-07T06:32:07;17.30;74.20
75719;DHT22;64340;48.534;-3.036;2023-05-07T06:34:33;17.30;74.10
75719;DHT22;64340;48.534;-3.036;2023-05-07T06:36:59;17.30;74.00
75719;DHT22;64340;48.534;-3.036;2023-05-07T06:39:24;17.30;74.10
75719;DHT22;64340;48.534;-3.036;2023-05-07T06:41:50;17.30;74.10
75719;DHT22;64340;48.534;-3.036;2023-05-07T06:44:16;17.30;74.20
75719;DHT22;64340;48.534;-3.036;2023-05-07T06:46:42;17.30;74.00
75719;DHT22;64340;48.534;-3.036;2023-05-07T06:49:07;17.40;73.90
75719;DHT22;64340;48.534;-3.036;2023-05-07T06:51:33;17.40;73.80
75719;DHT22;64340;48.534;-3.036;2023-05-07T06:54:00;17.40;74.00
75719;DHT22;64340;48.534;-3.036;2023-05-07T06:56:26;17.40;74.10
75719;DHT22;64340;48.534;-3.036;2023-05-07T06:58:51;17.40;74.20
75719;DHT22;64340;48.534;-3.036;2023-05-07T07:01:17;17.40;74.20
75719;DHT22;64340;48.534;-3.036;2023-05-07T07:03:43;17.40;74.20
75719;DHT22;64340;48.534;-3.036;2023-05-07T07:06:09;17.40;74.20
75719;DHT22;64340;48.534;-3.036;2023-05-07T07:08:34;17.40;74.40
75719;DHT22;64340;48.534;-3.036;2023-05-07T07:11:00;17.40;74.30
75719;DHT22;64340;48.534;-3.036;2023-05-07T07:13:26;17.40;74.30
75719;DHT22;64340;48.534;-3.036;2023-05-07T07:15:52;17.50;74.30
75719;DHT22;64340;48.534;-3.036;2023-05-07T07:18:19;17.40;74.30
75719;DHT22;64340;48.534;-3.036;2023-05-07T07:20:44;17.40;74.30
75719;DHT22;64340;48.534;-3.036;2023-05-07T07:23:10;17.40;74.30
75719;DHT22;64340;48.534;-3.036;2023-05-07T07:25:36;17.50;74.10
75719;DHT22;64340;48.534;-3.036;2023-05-07T07:28:02;17.40;74.20
75719;DHT22;64340;48.534;-3.036;2023-05-07T07:30:28;17.50;74.70
75719;DHT22;64340;48.534;-3.036;2023-05-07T07:32:54;17.50;74.50
75719;DHT22;64340;48.534;-3.036;2023-05-07T07:35:20;17.50;74.50
75719;DHT22;64340;48.534;-3.036;2023-05-07T07:37:47;17.50;74.40
75719;DHT22;64340;48.534;-3.036;2023-05-07T07:40:16;17.50;74.50
75719;DHT22;64340;48.534;-3.036;2023-05-07T07:42:42;17.50;74.50
75719;DHT22;64340;48.534;-3.036;2023-05-07T07:45:08;17.50;74.40
75719;DHT22;64340;48.534;-3.036;2023-05-07T07:47:34;17.50;74.40
75719;DHT22;64340;48.534;-3.036;2023-05-07T07:49:59;17.50;74.50
75719;DHT22;64340;48.534;-3.036;2023-05-07T07:52:25;17.50;74.60
75719;DHT22;64340;48.534;-3.036;2023-05-07T07:54:51;17.50;74.70
75719;DHT22;64340;48.534;-3.036;2023-05-07T07:57:17;17.50;74.70
75719;DHT22;64340;48.534;-3.036;2023-05-07T07:59:43;17.50;74.50
75719;DHT22;64340;48.534;-3.036;2023-05-07T08:02:09;17.50;74.50
75719;DHT22;64340;48.534;-3.036;2023-05-07T08:04:34;17.50;74.50
75719;DHT22;64340;48.534;-3.036;2023-05-07T08:07:00;17.50;74.60
75719;DHT22;64340;48.534;-3.036;2023-05-07T08:09:26;17.50;75.30
75719;DHT22;64340;48.534;-3.036;2023-05-07T08:11:53;17.50;75.50
75719;DHT22;64340;48.534;-3.036;2023-05-07T08:14:19;17.50;75.70
75719;DHT22;64340;48.534;-3.036;2023-05-07T08:16:44;17.50;75.50
75719;DHT22;64340;48.534;-3.036;2023-05-07T08:19:10;17.50;74.90
75719;DHT22;64340;48.534;-3.036;2023-05-07T08:21:39;17.50;75.70
75719;DHT22;64340;48.534;-3.036;2023-05-07T08:24:05;17.50;75.80
75719;DHT22;64340;48.534;-3.036;2023-05-07T08:26:31;17.50;75.70
75719;DHT22;64340;48.534;-3.036;2023-05-07T08:28:56;17.50;75.70
75719;DHT22;64340;48.534;-3.036;2023-05-07T08:31:22;17.60;75.50
75719;DHT22;64340;48.534;-3.036;2023-05-07T08:33:50;17.60;75.10
75719;DHT22;64340;48.534;-3.036;2023-05-07T08:36:15;17.60;75.10
75719;DHT22;64340;48.534;-3.036;2023-05-07T08:38:41;17.70;75.20
75719;DHT22;64340;48.534;-3.036;2023-05-07T08:41:12;17.70;75.60
75719;DHT22;64340;48.534;-3.036;2023-05-07T08:43:40;17.70;75.60
75719;DHT22;64340;48.534;-3.036;2023-05-07T08:46:09;17.60;75.90
75719;DHT22;64340;48.534;-3.036;2023-05-07T08:48:35;17.70;76.00
75719;DHT22;64340;48.534;-3.036;2023-05-07T08:51:01;17.70;75.80
75719;DHT22;64340;48.534;-3.036;2023-05-07T08:53:28;17.70;74.70
75719;DHT22;64340;48.534;-3.036;2023-05-07T08:55:53;17.50;75.20
75719;DHT22;64340;48.534;-3.036;2023-05-07T08:58:20;17.20;74.90
75719;DHT22;64340;48.534;-3.036;2023-05-07T09:00:46;17.20;74.80
75719;DHT22;64340;48.534;-3.036;2023-05-07T09:03:12;17.00;75.10
75719;DHT22;64340;48.534;-3.036;2023-05-07T09:05:39;17.00;75.50
75719;DHT22;64340;48.534;-3.036;2023-05-07T09:08:06;17.00;75.60
75719;DHT22;64340;48.534;-3.036;2023-05-07T09:10:34;17.00;75.70
75719;DHT22;64340;48.534;-3.036;2023-05-07T09:13:00;17.20;75.50
75719;DHT22;64340;48.534;-3.036;2023-05-07T09:15:26;17.20;75.40
75719;DHT22;64340;48.534;-3.036;2023-05-07T09:17:53;17.30;75.20
75719;DHT22;64340;48.534;-3.036;2023-05-07T09:20:19;17.40;75.00
75719;DHT22;64340;48.534;-3.036;2023-05-07T09:22:45;17.50;75.00
75719;DHT22;64340;48.534;-3.036;2023-05-07T09:25:11;17.50;74.90
75719;DHT22;64340;48.534;-3.036;2023-05-07T09:27:36;17.50;74.90
75719;DHT22;64340;48.534;-3.036;2023-05-07T09:30:06;17.50;75.20
75719;DHT22;64340;48.534;-3.036;2023-05-07T09:32:36;17.50;75.30
75719;DHT22;64340;48.534;-3.036;2023-05-07T09:35:05;17.50;75.50
75719;DHT22;64340;48.534;-3.036;2023-05-07T09:37:31;17.50;75.50
75719;DHT22;64340;48.534;-3.036;2023-05-07T09:39:58;17.50;75.40
75719;DHT22;64340;48.534;-3.036;2023-05-07T09:42:24;17.50;75.40
75719;DHT22;64340;48.534;-3.036;2023-05-07T09:44:52;17.50;75.50
75719;DHT22;64340;48.534;-3.036;2023-05-07T09:47:19;17.50;75.50
75719;DHT22;64340;48.534;-3.036;2023-05-07T09:49:47;17.50;75.30
75719;DHT22;64340;48.534;-3.036;2023-05-07T09:52:14;17.60;75.30
75719;DHT22;64340;48.534;-3.036;2023-05-07T09:54:41;17.60;75.20
75719;DHT22;64340;48.534;-3.036;2023-05-07T09:57:11;17.60;75.20
75719;DHT22;64340;48.534;-3.036;2023-05-07T09:59:38;17.60;75.20
75719;DHT22;64340;48.534;-3.036;2023-05-07T10:02:04;17.60;75.20
75719;DHT22;64340;48.534;-3.036;2023-05-07T10:04:32;17.60;75.30
75719;DHT22;64340;48.534;-3.036;2023-05-07T10:06:59;17.80;75.40
75719;DHT22;64340;48.534;-3.036;2023-05-07T10:09:26;17.80;75.20
75719;DHT22;64340;48.534;-3.036;2023-05-07T10:11:52;17.80;75.20
75719;DHT22;64340;48.534;-3.036;2023-05-07T10:14:21;17.80;75.20
75719;DHT22;64340;48.534;-3.036;2023-05-07T10:16:47;17.80;74.90
75719;DHT22;64340;48.534;-3.036;2023-05-07T10:19:14;17.80;75.00
75719;DHT22;64340;48.534;-3.036;2023-05-07T10:21:51;17.80;73.80
75719;DHT22;64340;48.534;-3.036;2023-05-07T10:24:29;17.80;75.20
75719;DHT22;64340;48.534;-3.036;2023-05-07T10:26:55;17.80;75.00
75719;DHT22;64340;48.534;-3.036;2023-05-07T10:35:00;18.00;74.90
75719;DHT22;64340;48.534;-3.036;2023-05-07T10:37:26;18.00;74.80
75719;DHT22;64340;48.534;-3.036;2023-05-07T10:39:53;17.80;74.80
75719;DHT22;64340;48.534;-3.036;2023-05-07T10:42:18;17.90;74.70
75719;DHT22;64340;48.534;-3.036;2023-05-07T10:44:44;17.80;75.20
75719;DHT22;64340;48.534;-3.036;2023-05-07T10:47:12;17.90;74.70
75719;DHT22;64340;48.534;-3.036;2023-05-07T10:52:22;18.00;74.50
75719;DHT22;64340;48.534;-3.036;2023-05-07T10:57:43;18.10;74.80
75719;DHT22;64340;48.534;-3.036;2023-05-07T11:03:07;18.10;75.10
75719;DHT22;64340;48.534;-3.036;2023-05-07T11:05:33;18.00;75.30
75719;DHT22;64340;48.534;-3.036;2023-05-07T11:08:01;18.00;75.30
75719;DHT22;64340;48.534;-3.036;2023-05-07T11:10:55;18.10;75.40
75719;DHT22;64340;48.534;-3.036;2023-05-07T11:13:47;18.10;75.30
75719;DHT22;64340;48.534;-3.036;2023-05-07T11:18:54;18.40;74.80
75719;DHT22;64340;48.534;-3.036;2023-05-07T11:21:34;18.30;75.00
75719;DHT22;64340;48.534;-3.036;2023-05-07T11:24:01;18.20;75.40
75719;DHT22;64340;48.534;-3.036;2023-05-07T11:26:29;18.30;75.30
75719;DHT22;64340;48.534;-3.036;2023-05-07T11:28:55;18.40;74.80
75719;DHT22;64340;48.534;-3.036;2023-05-07T11:31:24;18.40;74.80
75719;DHT22;64340;48.534;-3.036;2023-05-07T11:33:50;18.30;74.80
75719;DHT22;64340;48.534;-3.036;2023-05-07T11:36:16;18.20;74.90
75719;DHT22;64340;48.534;-3.036;2023-05-07T11:38:42;18.30;74.90
75719;DHT22;64340;48.534;-3.036;2023-05-07T11:41:08;18.40;74.70
75719;DHT22;64340;48.534;-3.036;2023-05-07T11:43:34;18.30;74.60
75719;DHT22;64340;48.534;-3.036;2023-05-07T11:46:11;18.30;74.60
75719;DHT22;64340;48.534;-3.036;2023-05-07T11:48:38;18.30;74.60
75719;DHT22;64340;48.534;-3.036;2023-05-07T11:51:05;18.30;74.90
75719;DHT22;64340;48.534;-3.036;2023-05-07T11:53:41;18.30;74.60
75719;DHT22;64340;48.534;-3.036;2023-05-07T11:56:12;18.40;74.60
75719;DHT22;64340;48.534;-3.036;2023-05-07T11:58:39;18.40;72.30
75719;DHT22;64340;48.534;-3.036;2023-05-07T12:01:08;18.30;72.10
75719;DHT22;64340;48.534;-3.036;2023-05-07T12:03:35;18.20;73.00
75719;DHT22;64340;48.534;-3.036;2023-05-07T12:06:03;18.20;73.60
75719;DHT22;64340;48.534;-3.036;2023-05-07T12:08:31;18.20;74.10
75719;DHT22;64340;48.534;-3.036;2023-05-07T12:10:58;18.10;74.40
75719;DHT22;64340;48.534;-3.036;2023-05-07T12:13:25;18.10;74.40
75719;DHT22;64340;48.534;-3.036;2023-05-07T12:15:55;18.10;74.40
75719;DHT22;64340;48.534;-3.036;2023-05-07T12:18:21;18.10;74.30
75719;DHT22;64340;48.534;-3.036;2023-05-07T12:20:47;18.10;74.30
75719;DHT22;64340;48.534;-3.036;2023-05-07T12:23:15;18.10;74.20
75719;DHT22;64340;48.534;-3.036;2023-05-07T12:25:42;18.10;74.20
75719;DHT22;64340;48.534;-3.036;2023-05-07T12:28:18;18.10;74.10
75719;DHT22;64340;48.534;-3.036;2023-05-07T12:30:48;18.10;74.20
75719;DHT22;64340;48.534;-3.036;2023-05-07T12:33:18;18.10;74.10
75719;DHT22;64340;48.534;-3.036;2023-05-07T12:35:47;18.10;74.20
75719;DHT22;64340;48.534;-3.036;2023-05-07T12:38:15;18.10;74.10
75719;DHT22;64340;48.534;-3.036;2023-05-07T12:40:46;18.10;72.00
75719;DHT22;64340;48.534;-3.036;2023-05-07T12:43:29;18.30;73.20
75719;DHT22;64340;48.534;-3.036;2023-05-07T12:45:57;18.30;72.40
75719;DHT22;64340;48.534;-3.036;2023-05-07T12:48:23;18.20;72.10
75719;DHT22;64340;48.534;-3.036;2023-05-07T12:50:55;18.00;72.00
75719;DHT22;64340;48.534;-3.036;2023-05-07T12:53:22;18.00;71.70
75719;DHT22;64340;48.534;-3.036;2023-05-07T12:55:49;17.80;72.00
75719;DHT22;64340;48.534;-3.036;2023-05-07T12:58:20;17.80;72.50
75719;DHT22;64340;48.534;-3.036;2023-05-07T13:00:50;17.80;72.30
75719;DHT22;64340;48.534;-3.036;2023-05-07T13:03:30;17.80;73.30
75719;DHT22;64340;48.534;-3.036;2023-05-07T13:06:02;17.80;73.30
75719;DHT22;64340;48.534;-3.036;2023-05-07T13:08:29;17.80;73.30
75719;DHT22;64340;48.534;-3.036;2023-05-07T13:10:56;17.80;72.80
75719;DHT22;64340;48.534;-3.036;2023-05-07T13:13:22;17.80;72.50
75719;DHT22;64340;48.534;-3.036;2023-05-07T13:15:48;17.60;71.90
75719;DHT22;64340;48.534;-3.036;2023-05-07T13:18:14;17.60;72.50
75719;DHT22;64340;48.534;-3.036;2023-05-07T13:20:39;17.60;72.50
75719;DHT22;64340;48.534;-3.036;2023-05-07T13:23:06;17.50;72.40
75719;DHT22;64340;48.534;-3.036;2023-05-07T13:25:32;17.50;73.10
75719;DHT22;64340;48.534;-3.036;2023-05-07T13:27:59;17.50;73.10
75719;DHT22;64340;48.534;-3.036;2023-05-07T13:30:24;17.50;72.80
75719;DHT22;64340;48.534;-3.036;2023-05-07T13:32:52;17.50;73.00
75719;DHT22;64340;48.534;-3.036;2023-05-07T13:35:17;17.50;73.20
75719;DHT22;64340;48.534;-3.036;2023-05-07T13:37:43;17.50;72.90
75719;DHT22;64340;48.534;-3.036;2023-05-07T13:40:09;17.60;73.00
75719;DHT22;64340;48.534;-3.036;2023-05-07T13:42:35;17.70;72.80
75719;DHT22;64340;48.534;-3.036;2023-05-07T13:45:01;17.70;72.70
75719;DHT22;64340;48.534;-3.036;2023-05-07T13:47:30;17.60;72.60
75719;DHT22;64340;48.534;-3.036;2023-05-07T13:49:56;17.50;72.70
75719;DHT22;64340;48.534;-3.036;2023-05-07T13:52:21;17.50;73.10
75719;DHT22;64340;48.534;-3.036;2023-05-07T13:54:49;17.40;73.70
75719;DHT22;64340;48.534;-3.036;2023-05-07T13:57:14;17.40;73.90
75719;DHT22;64340;48.534;-3.036;2023-05-07T13:59:42;17.40;73.80
75719;DHT22;64340;48.534;-3.036;2023-05-07T14:02:08;17.40;74.00
75719;DHT22;64340;48.534;-3.036;2023-05-07T14:04:37;17.40;73.80
75719;DHT22;64340;48.534;-3.036;2023-05-07T14:07:03;17.40;73.70
75719;DHT22;64340;48.534;-3.036;2023-05-07T14:09:29;17.50;73.80
75719;DHT22;64340;48.534;-3.036;2023-05-07T14:11:54;17.50;74.00
75719;DHT22;64340;48.534;-3.036;2023-05-07T14:14:20;17.50;73.80
75719;DHT22;64340;48.534;-3.036;2023-05-07T14:16:46;17.50;73.30
75719;DHT22;64340;48.534;-3.036;2023-05-07T14:19:12;17.50;73.90
75719;DHT22;64340;48.534;-3.036;2023-05-07T14:21:38;17.60;73.10
75719;DHT22;64340;48.534;-3.036;2023-05-07T14:24:06;17.70;73.60
75719;DHT22;64340;48.534;-3.036;2023-05-07T14:26:33;17.80;73.10
75719;DHT22;64340;48.534;-3.036;2023-05-07T14:28:58;17.90;73.00
75719;DHT22;64340;48.534;-3.036;2023-05-07T14:31:25;17.80;72.80
75719;DHT22;64340;48.534;-3.036;2023-05-07T14:33:51;17.90;72.90
75719;DHT22;64340;48.534;-3.036;2023-05-07T14:36:18;17.90;71.60
75719;DHT22;64340;48.534;-3.036;2023-05-07T14:38:46;17.80;72.50
75719;DHT22;64340;48.534;-3.036;2023-05-07T14:41:12;17.80;72.00
75719;DHT22;64340;48.534;-3.036;2023-05-07T14:43:37;17.80;72.50
75719;DHT22;64340;48.534;-3.036;2023-05-07T14:46:03;17.70;72.70
75719;DHT22;64340;48.534;-3.036;2023-05-07T14:48:29;17.80;72.50
75719;DHT22;64340;48.534;-3.036;2023-05-07T14:50:55;17.70;72.30
75719;DHT22;64340;48.534;-3.036;2023-05-07T14:53:22;17.70;72.50
75719;DHT22;64340;48.534;-3.036;2023-05-07T14:55:48;17.70;72.90
75719;DHT22;64340;48.534;-3.036;2023-05-07T14:58:14;17.70;73.00
75719;DHT22;64340;48.534;-3.036;2023-05-07T15:00:40;17.80;72.70
75719;DHT22;64340;48.534;-3.036;2023-05-07T15:03:07;17.60;73.00
75719;DHT22;64340;48.534;-3.036;2023-05-07T15:05:35;17.60;73.00
75719;DHT22;64340;48.534;-3.036;2023-05-07T15:08:01;17.60;72.70
75719;DHT22;64340;48.534;-3.036;2023-05-07T15:10:27;17.60;72.70
75719;DHT22;64340;48.534;-3.036;2023-05-07T15:12:53;17.60;72.70
75719;DHT22;64340;48.534;-3.036;2023-05-07T15:15:19;17.60;73.00
75719;DHT22;64340;48.534;-3.036;2023-05-07T15:17:44;17.60;72.60
75719;DHT22;64340;48.534;-3.036;2023-05-07T15:20:10;17.70;71.90
75719;DHT22;64340;48.534;-3.036;2023-05-07T15:22:36;17.50;71.80
75719;DHT22;64340;48.534;-3.036;2023-05-07T15:25:03;17.50;72.60
75719;DHT22;64340;48.534;-3.036;2023-05-07T15:27:30;17.50;72.50
75719;DHT22;64340;48.534;-3.036;2023-05-07T15:29:56;17.50;72.50